Time;durP1;ratioP1;P1;durP2;ratioP2;P2;SDS_P1;SDS_P2;PMS_P1;PMS_P2;Temp;Humidity;BMP_temperature;BMP_pressure;BME280_temperature;BME280_humidity;BME280_pressure;Samples;Min_cycle;Max_cycle;Signal;HPM_P1;HPM_P2
2023/08/19 00:02:29;;;;;;;17.10;15.40;;;;;;;19.11;100.00;99124.55;136049;1289;22588;-84
2023/08/19 00:05:32;;;;;;;17.20;15.50;;;;;;;19.14;100.00;99125.39;135865;1289;23301;-84
2023/08/19 00:08:34;;;;;;;19.90;16.10;;;;;;;19.14;100.00;99120.27;135732;1289;22465;-84
2023/08/19 00:11:37;;;;;;;18.30;14.70;;;;;;;19.03;100.00;99112.50;135762;1286;154592;-84
2023/08/19 00:14:39;;;;;;;15.80;13.70;;;;;;;18.89;100.00;99113.29;136198;1278;22550;-83
2023/08/19 00:17:42;;;;;;;19.20;15.00;;;;;;;18.78;100.00;99109.41;136346;1284;22192;-84
2023/08/19 00:20:44;;;;;;;17.00;14.40;;;;;;;18.71;100.00;99098.77;136217;1284;22379;-83
2023/08/19 00:23:47;;;;;;;16.30;14.20;;;;;;;18.66;100.00;99100.45;136081;1284;22571;-81
2023/08/19 00:26:49;;;;;;;16.90;15.40;;;;;;;18.62;100.00;99099.63;136373;1284;22240;-84
2023/08/19 00:29:52;;;;;;;17.90;16.20;;;;;;;18.60;100.00;99102.64;136050;1278;22288;-84
2023/08/19 00:32:54;;;;;;;17.50;15.80;;;;;;;18.61;100.00;99105.27;135953;1284;22328;-85
2023/08/19 00:35:57;;;;;;;17.40;15.70;;;;;;;18.60;100.00;99105.27;136418;1284;22565;-84
2023/08/19 00:38:59;;;;;;;18.30;16.20;;;;;;;18.59;100.00;99104.42;136019;1284;22197;-85
2023/08/19 00:42:02;;;;;;;17.70;15.80;;;;;;;18.54;100.00;99104.14;136304;1279;22200;-85
2023/08/19 00:45:04;;;;;;;16.60;15.10;;;;;;;18.49;100.00;99102.11;136429;1279;22554;-84
2023/08/19 00:48:07;;;;;;;17.30;15.40;;;;;;;18.45;100.00;99099.34;136520;1279;22182;-85
2023/08/19 00:51:09;;;;;;;17.70;16.00;;;;;;;18.40;100.00;99099.77;136265;1279;22678;-84
2023/08/19 00:54:12;;;;;;;19.30;16.90;;;;;;;18.41;100.00;99098.89;136262;1276;22537;-83
2023/08/19 00:57:14;;;;;;;19.40;17.50;;;;;;;18.42;100.00;99100.45;136753;1279;22245;-84
2023/08/19 01:00:17;;;;;;;18.70;15.30;;;;;;;18.40;100.00;99093.09;136250;1279;22267;-84
2023/08/19 01:03:19;;;;;;;16.80;15.40;;;;;;;18.30;100.00;99088.48;136340;1279;22542;-84
2023/08/19 01:06:22;;;;;;;17.10;15.50;;;;;;;18.17;100.00;99086.89;136780;1275;22405;-85
2023/08/19 01:09:25;;;;;;;17.60;15.80;;;;;;;18.14;100.00;99084.64;136340;1279;22199;-84
2023/08/19 01:12:27;;;;;;;18.10;16.40;;;;;;;18.17;100.00;99083.02;136178;1279;22378;-85
2023/08/19 01:15:30;;;;;;;16.70;14.10;;;;;;;18.15;100.00;99083.40;136590;1279;22534;-85
2023/08/19 01:18:32;;;;;;;19.20;15.90;;;;;;;18.06;100.00;99081.41;136569;1279;22212;-85
2023/08/19 01:21:35;;;;;;;17.80;16.00;;;;;;;17.99;100.00;99078.70;136162;1279;22220;-85
2023/08/19 01:24:37;;;;;;;17.80;14.60;;;;;;;17.94;100.00;99085.47;136512;1279;22541;-84
2023/08/19 01:27:40;;;;;;;16.90;15.40;;;;;;;17.89;100.00;99081.66;136646;1279;22320;-85
2023/08/19 01:30:43;;;;;;;15.80;14.30;;;;;;;17.86;100.00;99080.65;136418;1279;22471;-85
2023/08/19 01:33:46;;;;;;;16.60;14.90;;;;;;;17.81;100.00;99080.36;136280;1279;22646;-85
2023/08/19 01:36:48;;;;;;;16.40;14.80;;;;;;;17.77;100.00;99081.13;136838;1279;22688;-84
2023/08/19 01:39:51;;;;;;;16.50;14.80;;;;;;;17.76;100.00;99077.27;136327;1279;22260;-85
2023/08/19 01:42:54;;;;;;;147.90;23.70;;;;;;;17.78;100.00;99079.35;136300;1279;22245;-83
2023/08/19 01:45:57;;;;;;;25.50;16.50;;;;;;;17.82;100.00;99075.59;136762;1279;22266;-85
2023/08/19 01:48:59;;;;;;;16.60;15.00;;;;;;;17.86;100.00;99076.25;136327;1279;22203;-86
2023/08/19 01:52:02;;;;;;;18.60;15.20;;;;;;;17.79;100.00;99072.11;136287;1279;22277;-85
2023/08/19 01:55:04;;;;;;;501.90;39.10;;;;;;;17.71;100.00;99063.41;136585;1279;22587;-85
2023/08/19 01:58:07;;;;;;;29.00;16.80;;;;;;;17.67;100.00;99059.42;136297;1279;22419;-85
2023/08/19 02:01:09;;;;;;;16.70;15.20;;;;;;;17.67;100.00;99064.71;136714;1279;22604;-85
2023/08/19 02:04:12;;;;;;;14.80;13.30;;;;;;;17.68;100.00;99068.05;136882;1279;22302;-85
2023/08/19 02:07:14;;;;;;;18.30;15.30;;;;;;;17.64;100.00;99068.08;136862;1279;22230;-86
2023/08/19 02:10:16;;;;;;;16.80;14.90;;;;;;;17.55;100.00;99067.30;136889;1279;22410;-86
2023/08/19 02:13:19;;;;;;;18.50;14.80;;;;;;;17.48;100.00;99066.68;136818;1279;22196;-85
2023/08/19 02:16:21;;;;;;;16.90;15.10;;;;;;;17.45;100.00;99072.17;136777;1279;22232;-85
2023/08/19 02:19:24;;;;;;;15.60;14.20;;;;;;;17.44;100.00;99072.19;136777;1279;22211;-85
2023/08/19 02:22:26;;;;;;;18.00;16.50;;;;;;;17.46;100.00;99073.73;136859;1279;22446;-84
2023/08/19 02:25:29;;;;;;;17.50;15.70;;;;;;;17.49;100.00;99080.39;136923;1279;22212;-85
2023/08/19 02:28:31;;;;;;;50.20;16.60;;;;;;;17.48;100.00;99076.00;136812;1279;22642;-84
2023/08/19 02:31:34;;;;;;;33.60;18.50;;;;;;;17.46;100.00;99077.80;136828;1279;22281;-85
2023/08/19 02:34:36;;;;;;;24.80;16.50;;;;;;;17.43;100.00;99078.54;136817;1279;22505;-85
2023/08/19 02:37:40;;;;;;;19.50;16.80;;;;;;;17.42;100.00;99083.64;136818;1279;22277;-86
2023/08/19 02:40:42;;;;;;;17.80;16.00;;;;;;;17.42;100.00;99084.52;136493;1279;22672;-85
2023/08/19 02:43:45;;;;;;;22.10;17.30;;;;;;;17.41;100.00;99087.00;136925;1279;22214;-86
2023/08/19 02:46:50;;;;;;;17.60;16.10;;;;;;;17.44;100.00;99083.44;136399;1279;22269;-86
2023/08/19 02:49:53;;;;;;;18.80;16.80;;;;;;;17.47;100.00;99088.86;136950;1279;22239;-84
2023/08/19 02:52:55;;;;;;;20.80;15.70;;;;;;;17.41;100.00;99090.70;136945;1279;22327;-84
2023/08/19 02:55:58;;;;;;;69.30;17.50;;;;;;;17.37;100.00;99092.33;136770;1279;22468;-84
2023/08/19 02:59:02;;;;;;;19.10;14.70;;;;;;;17.34;100.00;99094.98;136823;1279;22812;-84
2023/08/19 03:02:05;;;;;;;16.40;14.80;;;;;;;17.28;100.00;99100.84;136915;1279;22117;-85
2023/08/19 03:05:07;;;;;;;17.60;15.20;;;;;;;17.25;100.00;99107.73;136856;1271;22207;-85
2023/08/19 03:08:10;;;;;;;16.80;15.10;;;;;;;17.26;100.00;99108.42;136929;1275;22403;-86
2023/08/19 03:11:12;;;;;;;19.20;15.00;;;;;;;17.26;100.00;99110.17;136835;1279;22756;-86
2023/08/19 03:14:15;;;;;;;16.30;14.70;;;;;;;17.21;100.00;99109.02;136897;1279;22209;-85
2023/08/19 03:17:18;;;;;;;17.60;14.80;;;;;;;17.16;100.00;99105.36;136841;1279;22227;-85
2023/08/19 03:20:20;;;;;;;15.50;14.20;;;;;;;17.11;100.00;99103.65;136807;1279;22155;-86
2023/08/19 03:23:23;;;;;;;25.20;15.20;;;;;;;17.09;100.00;99106.67;136892;1279;22196;-86
2023/08/19 03:26:25;;;;;;;27.50;15.20;;;;;;;17.09;100.00;99108.08;136622;1279;22408;-86
2023/08/19 03:29:28;;;;;;;16.00;14.60;;;;;;;17.12;100.00;99107.00;136887;1279;22470;-85
2023/08/19 03:32:30;;;;;;;317.00;34.10;;;;;;;17.13;100.00;99102.05;136719;1279;25992;-85
2023/08/19 03:35:35;;;;;;;18.30;14.10;;;;;;;17.11;100.00;99097.33;136865;1279;22192;-85
2023/08/19 03:38:38;;;;;;;16.70;12.80;;;;;;;17.05;100.00;99097.23;136852;1279;22366;-85
2023/08/19 03:41:40;;;;;;;13.10;11.90;;;;;;;17.01;100.00;99097.42;136836;1279;22361;-85
2023/08/19 03:44:43;;;;;;;14.00;12.60;;;;;;;17.04;100.00;99093.88;136683;1279;22321;-86
2023/08/19 03:47:45;;;;;;;13.80;12.50;;;;;;;17.07;100.00;99095.08;136904;1279;22472;-86
2023/08/19 03:50:50;;;;;;;15.10;12.90;;;;;;;17.12;100.00;99092.74;136853;1279;22151;-85
2023/08/19 03:53:53;;;;;;;14.10;12.90;;;;;;;17.17;100.00;99093.92;136885;1279;22116;-85
2023/08/19 03:56:55;;;;;;;14.50;13.10;;;;;;;17.23;100.00;99093.16;136910;1279;22301;-84
2023/08/19 03:59:58;;;;;;;15.80;13.70;;;;;;;17.29;100.00;99094.50;136836;1279;22564;-84
2023/08/19 04:03:00;;;;;;;14.90;13.50;;;;;;;17.39;100.00;99095.98;136851;1279;22649;-85
2023/08/19 04:06:03;;;;;;;17.20;12.80;;;;;;;17.45;100.00;99097.51;136849;1279;22406;-86
2023/08/19 04:09:05;;;;;;;14.00;12.80;;;;;;;17.49;100.00;99096.74;136908;1279;22356;-85
2023/08/19 04:12:08;;;;;;;13.70;12.60;;;;;;;17.45;100.00;99098.73;136923;1279;22322;-85
2023/08/19 04:15:10;;;;;;;20.00;13.00;;;;;;;17.45;100.00;99097.33;136926;1275;22229;-85
2023/08/19 04:18:13;;;;;;;13.00;11.70;;;;;;;17.49;100.00;99094.27;136668;1279;22340;-84
2023/08/19 04:21:16;;;;;;;14.00;12.80;;;;;;;17.59;100.00;99090.82;136897;1279;22222;-82
2023/08/19 04:24:18;;;;;;;14.50;13.10;;;;;;;17.72;100.00;99091.56;136877;1279;22297;-82
2023/08/19 04:27:21;;;;;;;14.00;12.80;;;;;;;17.83;100.00;99098.11;136899;1279;22245;-84
2023/08/19 04:30:24;;;;;;;12.70;11.60;;;;;;;17.93;100.00;99106.96;136804;1279;22392;-84
2023/08/19 04:33:27;;;;;;;13.30;12.00;;;;;;;18.04;100.00;99107.33;136868;1279;22582;-85
2023/08/19 04:36:30;;;;;;;13.70;11.80;;;;;;;18.19;100.00;99109.25;136838;1279;22690;-85
2023/08/19 04:39:32;;;;;;;13.90;12.10;;;;;;;18.37;100.00;99111.97;136868;1279;22523;-85
2023/08/19 04:42:35;;;;;;;12.90;11.60;;;;;;;18.53;100.00;99112.80;136775;1279;22549;-85
2023/08/19 04:45:40;;;;;;;12.70;11.60;;;;;;;18.67;100.00;99111.54;136903;1278;22618;-85
2023/08/19 04:48:42;;;;;;;193.00;21.50;;;;;;;18.84;100.00;99118.12;136853;1278;22522;-82
2023/08/19 04:51:45;;;;;;;27.10;13.40;;;;;;;18.92;100.00;99119.74;136885;1275;22338;-87
2023/08/19 04:54:47;;;;;;;12.10;11.20;;;;;;;19.03;100.00;99114.63;136866;1278;22205;-86
2023/08/19 04:57:50;;;;;;;18.60;13.00;;;;;;;19.20;100.00;99120.85;136895;1274;22400;-84
2023/08/19 05:00:52;;;;;;;14.30;12.90;;;;;;;19.36;100.00;99119.50;136909;1278;22175;-86
2023/08/19 05:03:55;;;;;;;15.10;13.00;;;;;;;19.48;100.00;99121.92;136621;1278;22235;-84
2023/08/19 05:06:57;;;;;;;14.20;12.90;;;;;;;19.63;100.00;99118.29;136478;1278;22970;-86
2023/08/19 05:10:03;;;;;;;20.80;12.40;;;;;;;19.78;100.00;99115.86;136801;1278;22552;-88
2023/08/19 05:13:16;;;;;;;11.90;10.80;;;;;;;19.91;100.00;99118.58;137183;1274;22415;-83
2023/08/19 05:16:20;;;;;;;12.10;10.90;;;;;;;20.01;100.00;99121.05;137135;1274;22426;-84
2023/08/19 05:19:24;;;;;;;12.10;10.20;;;;;;;20.11;100.00;99116.25;136928;1274;25234;-86
2023/08/19 05:22:30;;;;;;;15.40;10.80;;;;;;;20.24;100.00;99119.48;136883;1265;22321;-85
2023/08/19 05:25:33;;;;;;;13.10;11.80;;;;;;;20.42;100.00;99119.79;137107;1274;24545;-85
2023/08/19 05:28:38;;;;;;;17.60;11.50;;;;;;;20.65;100.00;99120.13;137047;1274;22552;-83
2023/08/19 05:31:42;;;;;;;11.70;10.60;;;;;;;20.86;100.00;99116.62;136480;1274;22279;-85
2023/08/19 05:34:44;;;;;;;21.40;11.00;;;;;;;21.01;100.00;99104.38;137103;1275;22538;-84
2023/08/19 05:37:52;;;;;;;15.40;10.90;;;;;;;21.14;100.00;99105.81;137077;1275;22194;-85
2023/08/19 05:40:55;;;;;;;11.10;9.80;;;;;;;21.32;100.00;99103.05;137233;1275;22553;-83
2023/08/19 05:43:57;;;;;;;35.00;14.00;;;;;;;21.44;100.00;99108.01;136981;1275;22526;-85
2023/08/19 05:47:00;;;;;;;40.80;14.30;;;;;;;21.65;100.00;99109.23;137152;1259;22563;-84
2023/08/19 05:50:03;;;;;;;14.70;13.30;;;;;;;21.85;100.00;99115.01;137174;1275;22396;-85
2023/08/19 05:53:08;;;;;;;16.00;14.30;;;;;;;22.06;100.00;99118.66;137004;1275;22594;-83
2023/08/19 05:56:10;;;;;;;15.70;14.30;;;;;;;22.24;100.00;99122.35;136917;1275;24690;-86
2023/08/19 05:59:15;;;;;;;16.30;14.80;;;;;;;22.42;100.00;99121.62;136955;1275;22642;-83
2023/08/19 06:02:17;;;;;;;15.90;14.40;;;;;;;22.62;100.00;99120.31;137108;1253;23312;-84
2023/08/19 06:05:21;;;;;;;15.20;13.60;;;;;;;22.86;100.00;99118.12;137321;1275;22392;-83
2023/08/19 06:08:23;;;;;;;15.50;14.00;;;;;;;23.13;100.00;99122.52;137120;1275;22218;-84
2023/08/19 06:11:26;;;;;;;19.50;13.10;;;;;;;23.36;100.00;99123.32;137257;1275;22165;-83
2023/08/19 06:14:29;;;;;;;15.30;14.00;;;;;;;23.58;100.00;99117.08;137269;1275;22235;-85
2023/08/19 06:17:32;;;;;;;14.30;12.90;;;;;;;23.75;100.00;99116.27;137227;1275;22431;-84
2023/08/19 06:20:34;;;;;;;17.60;13.50;;;;;;;23.95;100.00;99119.60;137193;1271;22634;-84
2023/08/19 06:23:38;;;;;;;14.80;13.40;;;;;;;24.15;100.00;99123.45;137246;1275;22194;-83
2023/08/19 06:26:41;;;;;;;14.40;12.90;;;;;;;24.36;100.00;99128.36;137191;1271;22459;-84
2023/08/19 06:29:43;;;;;;;14.10;12.80;;;;;;;24.56;100.00;99128.61;137204;1275;22238;-84
2023/08/19 06:32:46;;;;;;;14.10;13.00;;;;;;;24.76;100.00;99131.20;137072;1275;22575;-83
2023/08/19 06:35:52;;;;;;;16.10;14.40;;;;;;;24.88;100.00;99134.98;137223;1275;22399;-84
2023/08/19 06:38:55;;;;;;;15.90;14.10;;;;;;;25.01;100.00;99131.23;137125;1275;22197;-85
2023/08/19 06:42:01;;;;;;;18.20;13.70;;;;;;;25.28;100.00;99135.79;137138;1271;22228;-82
2023/08/19 06:45:04;;;;;;;15.80;14.20;;;;;;;25.49;100.00;99135.08;137242;1274;22304;-82
2023/08/19 06:48:06;;;;;;;15.70;14.20;;;;;;;25.66;100.00;99134.86;137374;1275;22170;-85
2023/08/19 06:51:09;;;;;;;16.20;14.70;;;;;;;25.86;100.00;99132.34;137096;1275;22192;-85
2023/08/19 06:54:12;;;;;;;13.90;12.70;;;;;;;26.02;100.00;99140.89;137169;1275;22390;-83
2023/08/19 06:57:14;;;;;;;17.80;14.50;;;;;;;26.12;100.00;99145.45;137291;1275;22435;-84
2023/08/19 07:00:17;;;;;;;17.90;15.70;;;;;;;26.24;100.00;99147.02;137327;1275;22178;-85
2023/08/19 07:03:19;;;;;;;17.50;15.30;;;;;;;26.43;100.00;99152.05;137184;1275;22474;-82
2023/08/19 07:06:22;;;;;;;16.30;14.70;;;;;;;26.49;100.00;99149.76;137266;1271;22248;-82
2023/08/19 07:09:24;;;;;;;15.70;14.10;;;;;;;26.65;100.00;99149.20;137344;1275;22186;-83
2023/08/19 07:12:29;;;;;;;16.50;14.90;;;;;;;26.92;100.00;99153.77;137272;1275;23341;-82
2023/08/19 07:15:31;;;;;;;16.50;14.80;;;;;;;27.09;100.00;99158.30;137331;1263;22291;-82
2023/08/19 07:18:34;;;;;;;16.90;15.50;;;;;;;27.16;100.00;99159.17;137284;1275;22979;-83
2023/08/19 07:21:36;;;;;;;17.10;15.10;;;;;;;27.29;100.00;99160.65;137307;1275;22240;-82
2023/08/19 07:24:40;;;;;;;17.10;15.50;;;;;;;27.54;100.00;99159.89;137302;1275;22202;-82
2023/08/19 07:27:43;;;;;;;18.10;16.60;;;;;;;27.67;100.00;99167.84;137293;1275;22254;-82
2023/08/19 07:30:45;;;;;;;18.90;16.10;;;;;;;27.76;100.00;99169.52;137145;1275;22331;-82
2023/08/19 07:33:48;;;;;;;16.90;15.20;;;;;;;27.90;100.00;99171.11;137330;1275;22263;-82
2023/08/19 07:36:51;;;;;;;16.80;15.30;;;;;;;28.03;100.00;99171.83;137255;1275;22714;-83
2023/08/19 07:39:53;;;;;;;17.40;15.60;;;;;;;28.20;100.00;99173.95;137219;1275;22638;-83
2023/08/19 07:42:56;;;;;;;16.70;15.30;;;;;;;28.35;100.00;99181.04;137316;1275;22343;-82
2023/08/19 07:45:58;;;;;;;23.80;18.40;;;;;;;28.23;100.00;99185.59;137367;1275;22183;-82
2023/08/19 07:49:01;;;;;;;18.20;16.60;;;;;;;28.12;100.00;99179.20;137334;1275;22271;-82
2023/08/19 07:52:04;;;;;;;18.80;15.10;;;;;;;28.31;100.00;99177.98;137294;1275;22333;-82
2023/08/19 07:55:07;;;;;;;17.80;15.90;;;;;;;28.71;100.00;99178.31;137277;1275;22317;-83
2023/08/19 07:58:09;;;;;;;;;;;;;;;29.12;100.00;99180.06;137248;1275;22531;-83
2023/08/19 08:01:12;;;;;;;18.30;16.60;;;;;;;29.17;100.00;99184.63;137328;1275;22443;-83
2023/08/19 08:04:15;;;;;;;22.50;18.30;;;;;;;28.83;100.00;99187.85;137371;1275;22272;-82
2023/08/19 08:07:17;;;;;;;19.20;17.10;;;;;;;28.71;100.00;99182.61;137300;1275;22628;-82
2023/08/19 08:10:23;;;;;;;17.90;16.30;;;;;;;28.96;100.00;99177.57;137359;1275;22156;-83
2023/08/19 08:13:26;;;;;;;17.10;15.60;;;;;;;29.39;100.00;99173.80;137238;1275;22763;-83
2023/08/19 08:16:29;;;;;;;19.40;17.60;;;;;;;29.92;100.00;99177.98;137194;1275;22654;-84
2023/08/19 08:19:31;;;;;;;;;;;;;;;30.07;100.00;99176.31;137271;1275;22971;-83
2023/08/19 08:22:35;;;;;;;17.90;15.80;;;;;;;30.26;100.00;99177.13;137351;1274;22799;-83
2023/08/19 08:25:38;;;;;;;17.60;14.40;;;;;;;30.80;100.00;99179.96;137364;1275;22630;-82
2023/08/19 08:28:41;;;;;;;15.80;13.70;;;;;;;31.25;100.00;99181.09;137443;1274;22425;-82
2023/08/19 08:31:43;;;;;;;13.90;12.60;;;;;;;31.54;100.00;99183.63;137266;1274;22137;-81
2023/08/19 08:34:46;;;;;;;13.30;11.70;;;;;;;31.68;71.01;99180.73;137348;1275;22130;-81
2023/08/19 08:37:49;;;;;;;13.50;12.40;;;;;;;31.91;62.15;99181.66;137396;1274;22349;-81
2023/08/19 08:40:51;;;;;;;14.20;12.70;;;;;;;32.10;60.61;99177.75;137360;1272;22211;-81
2023/08/19 08:43:54;;;;;;;12.40;11.10;;;;;;;32.10;59.89;99181.50;137370;1275;22702;-81
2023/08/19 08:46:56;;;;;;;12.60;11.20;;;;;;;31.82;60.52;99185.84;137385;1275;22470;-82
2023/08/19 08:49:59;;;;;;;13.80;12.50;;;;;;;31.57;61.43;99182.92;137392;1274;22620;-82
2023/08/19 08:53:01;;;;;;;12.20;11.00;;;;;;;31.59;61.59;99182.92;137279;1275;22891;-83
2023/08/19 08:56:04;;;;;;;14.20;11.40;;;;;;;31.54;61.58;99184.54;137310;1274;22255;-83
2023/08/19 08:59:07;;;;;;;11.80;10.50;;;;;;;31.56;61.61;99184.38;136956;1274;22418;-84
2023/08/19 09:02:10;;;;;;;12.80;11.40;;;;;;;31.55;62.11;99182.64;137354;1275;22328;-83
2023/08/19 09:05:12;;;;;;;12.10;10.90;;;;;;;31.66;61.13;99178.11;137368;1275;22565;-83
2023/08/19 09:08:15;;;;;;;12.70;11.60;;;;;;;31.72;60.77;99177.25;137363;1275;22398;-83
2023/08/19 09:11:18;;;;;;;12.90;11.40;;;;;;;31.72;61.43;99175.98;137357;1270;22780;-84
2023/08/19 09:14:20;;;;;;;10.70;9.90;;;;;;;31.71;60.94;99179.08;137235;1274;22586;-82
2023/08/19 09:17:23;;;;;;;12.50;11.20;;;;;;;31.54;60.39;99180.00;137356;1272;22586;-84
2023/08/19 09:20:25;;;;;;;12.70;11.50;;;;;;;31.49;60.49;99175.16;137243;1275;22654;-83
2023/08/19 09:23:28;;;;;;;16.00;11.90;;;;;;;31.50;60.19;99179.92;137334;1274;22103;-84
2023/08/19 09:26:30;;;;;;;10.30;9.20;;;;;;;31.50;60.19;99184.11;137332;1272;22495;-84
2023/08/19 09:29:32;;;;;;;12.10;9.20;;;;;;;31.45;59.18;99184.63;137311;1274;22606;-84
2023/08/19 09:32:41;;;;;;;8.70;8.00;;;;;;;31.33;58.62;99188.14;137326;1274;22080;-84
2023/08/19 09:35:43;;;;;;;9.70;8.80;;;;;;;31.09;57.72;99189.73;137403;1275;22872;-84
2023/08/19 09:38:46;;;;;;;10.20;9.40;;;;;;;31.20;58.72;99186.86;137371;1274;22332;-84
2023/08/19 09:41:48;;;;;;;10.10;9.10;;;;;;;31.28;58.44;99190.78;137245;1274;22166;-84
2023/08/19 09:44:50;;;;;;;11.00;9.70;;;;;;;31.26;58.71;99192.61;137296;1275;22814;-84
2023/08/19 09:47:53;;;;;;;12.90;10.30;;;;;;;31.55;58.85;99190.58;137275;1274;22460;-84
2023/08/19 09:51:00;;;;;;;10.00;9.10;;;;;;;31.80;58.04;99188.36;137190;1274;22478;-84
2023/08/19 09:54:02;;;;;;;8.30;7.60;;;;;;;31.77;56.05;99189.60;137366;1275;22350;-84
2023/08/19 09:57:05;;;;;;;12.10;8.50;;;;;;;31.65;56.35;99187.71;137389;1274;22446;-84
2023/08/19 10:00:07;;;;;;;10.10;9.10;;;;;;;31.73;55.64;99188.14;137353;1275;22183;-84
2023/08/19 10:03:10;;;;;;;;;;;;;;;31.76;55.27;99187.89;137349;1275;22687;-83
2023/08/19 10:06:13;;;;;;;8.70;7.80;;;;;;;31.71;54.24;99191.11;137307;1275;22234;-84
2023/08/19 10:09:15;;;;;;;10.40;7.10;;;;;;;31.83;53.56;99193.86;137348;1273;22274;-84
2023/08/19 10:12:18;;;;;;;;;;;;;;;32.06;52.91;99190.83;137331;1264;22784;-83
2023/08/19 10:15:20;;;;;;;23.00;8.40;;;;;;;32.09;51.97;99191.01;137355;1274;22429;-83
2023/08/19 10:18:23;;;;;;;8.90;6.20;;;;;;;32.04;52.07;99189.02;137339;1275;22237;-84
2023/08/19 10:21:26;;;;;;;9.30;7.50;;;;;;;32.16;51.12;99185.81;137324;1275;22212;-83
2023/08/19 10:24:28;;;;;;;7.30;6.50;;;;;;;32.04;50.76;99181.98;137042;1275;22247;-84
2023/08/19 10:27:31;;;;;;;7.80;7.00;;;;;;;32.13;50.99;99179.02;137412;1274;22369;-83
2023/08/19 10:30:33;;;;;;;8.50;7.10;;;;;;;32.16;51.20;99180.98;137362;1274;22220;-83
2023/08/19 10:33:39;;;;;;;7.70;7.00;;;;;;;32.25;51.98;99175.80;137472;1263;22132;-84
2023/08/19 10:36:41;;;;;;;8.00;7.00;;;;;;;32.47;51.09;99176.77;137359;1275;22865;-85
2023/08/19 10:39:44;;;;;;;8.20;7.40;;;;;;;32.66;50.54;99177.39;137379;1275;22623;-83
2023/08/19 10:42:48;;;;;;;8.10;7.40;;;;;;;32.69;48.39;99172.98;137392;1275;22216;-83
2023/08/19 10:45:51;;;;;;;8.40;7.50;;;;;;;32.43;47.83;99171.64;137454;1263;22847;-84
2023/08/19 10:48:53;;;;;;;9.50;8.20;;;;;;;32.47;49.12;99170.13;137345;1275;22316;-85
2023/08/19 10:52:00;;;;;;;;;;;;;;;32.55;50.20;99171.68;136880;1273;22507;-84
2023/08/19 10:55:04;;;;;;;11.40;7.50;;;;;;;32.56;49.99;99167.80;136688;1279;22623;-83
2023/08/19 10:58:07;;;;;;;9.20;7.90;;;;;;;32.77;49.16;99167.33;136763;1279;22163;-83
2023/08/19 11:01:09;;;;;;;8.00;7.20;;;;;;;32.86;49.08;99164.86;136773;1279;22554;-83
2023/08/19 11:04:12;;;;;;;;;;;;;;;32.68;49.41;99160.77;136822;1279;22535;-85
2023/08/19 11:07:15;;;;;;;8.10;7.40;;;;;;;32.66;49.01;99163.70;136911;1276;22291;-85
2023/08/19 11:10:21;;;;;;;9.10;7.90;;;;;;;32.72;48.00;99160.33;136929;1275;22627;-86
2023/08/19 11:13:25;;;;;;;8.00;7.20;;;;;;;32.71;45.55;99161.46;137198;1267;22779;-85
2023/08/19 11:16:31;;;;;;;8.20;7.50;;;;;;;32.42;42.72;99156.61;137243;1275;22242;-85
2023/08/19 11:19:33;;;;;;;6.90;6.20;;;;;;;32.18;40.92;99156.34;137176;1275;22584;-85
2023/08/19 11:22:36;;;;;;;6.70;6.00;;;;;;;32.40;45.11;99153.87;137124;1275;22469;-87
2023/08/19 11:25:39;;;;;;;9.60;8.30;;;;;;;32.45;46.45;99152.59;137261;1275;22262;-86
2023/08/19 11:28:41;;;;;;;14.00;8.00;;;;;;;32.49;47.35;99148.36;137089;1275;22699;-86
2023/08/19 11:31:44;;;;;;;10.30;7.00;;;;;;;32.56;46.73;99146.00;136864;1276;22492;-86
2023/08/19 11:34:47;;;;;;;9.20;7.30;;;;;;;32.77;46.55;99142.30;136922;1279;22367;-85
2023/08/19 11:37:49;;;;;;;9.80;8.00;;;;;;;32.78;45.67;99139.32;136794;1279;22297;-87
2023/08/19 11:40:54;;;;;;;7.60;6.90;;;;;;;32.59;40.94;99138.77;136834;1273;22611;-86
2023/08/19 11:43:57;;;;;;;7.60;6.20;;;;;;;32.17;37.06;99130.29;136786;1279;22249;-86
2023/08/19 11:46:59;;;;;;;5.60;5.30;;;;;;;31.57;37.40;99137.38;136633;1279;22892;-87
2023/08/19 11:50:02;;;;;;;5.90;5.40;;;;;;;31.18;36.80;99138.79;137026;1275;22418;-85
2023/08/19 11:53:05;;;;;;;;;;;;;;;30.99;37.85;99143.95;137197;1275;22517;-86
2023/08/19 11:56:08;;;;;;;8.00;5.40;;;;;;;31.20;38.41;99138.32;137197;1274;22244;-86
2023/08/19 11:59:11;;;;;;;6.90;5.90;;;;;;;31.19;40.46;99136.77;137291;1275;22575;-86
2023/08/19 12:02:13;;;;;;;7.40;6.00;;;;;;;31.16;38.61;99133.21;137365;1275;22203;-85
2023/08/19 12:05:16;;;;;;;8.20;7.50;;;;;;;31.31;44.50;99131.82;137288;1275;22248;-87
2023/08/19 12:08:19;;;;;;;9.80;7.60;;;;;;;31.52;47.65;99132.52;137113;1275;22240;-86
2023/08/19 12:11:22;;;;;;;7.80;7.00;;;;;;;31.73;47.51;99128.39;136975;1275;275741;-85
2023/08/19 12:14:25;;;;;;;7.00;6.20;;;;;;;31.91;46.26;99131.09;136999;1275;22547;-86
2023/08/19 12:17:27;;;;;;;;;;;;;;;31.86;45.61;99131.42;137277;1275;23085;-86
2023/08/19 12:20:30;;;;;;;7.50;6.90;;;;;;;31.76;46.63;99129.98;137156;1275;22201;-86
2023/08/19 12:23:32;;;;;;;7.80;7.10;;;;;;;31.87;46.69;99131.89;137294;1275;22366;-86
2023/08/19 12:26:35;;;;;;;7.40;6.70;;;;;;;32.16;45.28;99129.62;137169;1275;22238;-86
2023/08/19 12:29:41;;;;;;;7.10;6.40;;;;;;;32.26;45.43;99128.93;137154;1275;22143;-86
2023/08/19 12:32:46;;;;;;;7.50;6.70;;;;;;;32.18;44.97;99130.39;137141;1275;22591;-86
2023/08/19 12:35:49;;;;;;;6.80;6.20;;;;;;;31.90;42.11;99126.66;136878;1275;22578;-86
2023/08/19 12:38:54;;;;;;;7.10;6.40;;;;;;;31.71;43.09;99122.95;137205;1274;22232;-85
2023/08/19 12:41:57;;;;;;;17.90;16.20;;;;;;;31.76;45.78;99123.98;137181;1275;22283;-87
2023/08/19 12:45:02;;;;;;;13.30;11.30;;;;;;;32.11;46.48;99124.98;137230;1274;22263;-87
2023/08/19 12:48:05;;;;;;;12.30;9.60;;;;;;;32.35;46.28;99129.35;137307;1275;22529;-85
2023/08/19 12:51:08;;;;;;;14.30;9.00;;;;;;;32.59;45.39;99117.71;137224;1275;22227;-85
2023/08/19 12:54:14;;;;;;;11.10;8.50;;;;;;;32.72;42.73;99115.48;137226;1275;22802;-85
2023/08/19 12:57:16;;;;;;;11.10;6.90;;;;;;;32.47;38.81;99116.59;137237;1275;22261;-86
2023/08/19 13:00:19;;;;;;;6.90;6.30;;;;;;;32.44;43.74;99122.80;137009;1275;22555;-85
2023/08/19 13:03:21;;;;;;;6.20;5.60;;;;;;;32.68;44.34;99118.65;137217;1275;22132;-85
2023/08/19 13:06:24;;;;;;;6.80;6.20;;;;;;;32.79;44.00;99117.11;137336;1275;22141;-86
2023/08/19 13:09:27;;;;;;;8.50;6.60;;;;;;;32.96;43.97;99114.95;137194;1274;23072;-86
2023/08/19 13:12:30;;;;;;;7.20;6.50;;;;;;;33.04;43.54;99111.46;137414;1275;22203;-86
2023/08/19 13:15:32;;;;;;;7.80;6.50;;;;;;;33.05;43.80;99106.90;137389;1274;22561;-85
2023/08/19 13:18:35;;;;;;;13.00;6.30;;;;;;;32.86;44.13;99104.52;137320;1274;22281;-86
2023/08/19 13:21:37;;;;;;;9.10;6.30;;;;;;;32.67;44.83;99103.54;137373;1274;22280;-85
2023/08/19 13:24:39;;;;;;;7.90;7.20;;;;;;;32.56;44.92;99103.83;137449;1275;22375;-86
2023/08/19 13:27:42;;;;;;;10.60;7.50;;;;;;;32.48;45.89;99101.73;137378;1274;22689;-87
2023/08/19 13:30:45;;;;;;;;;;;;;;;32.44;46.42;99098.85;137404;1275;22957;-86
2023/08/19 13:33:47;;;;;;;9.20;8.10;;;;;;;32.30;45.20;99100.23;137411;1271;22637;-87
2023/08/19 13:36:50;;;;;;;14.40;9.60;;;;;;;32.37;45.89;99099.72;137263;1274;22375;-87
2023/08/19 13:39:52;;;;;;;8.70;7.90;;;;;;;32.42;45.25;99099.67;137365;1274;22250;-87
2023/08/19 13:42:55;;;;;;;9.40;8.50;;;;;;;32.22;45.29;99101.30;137223;1274;22524;-86
2023/08/19 13:46:07;;;;;;;8.90;7.90;;;;;;;32.15;45.11;99096.27;137355;1274;22181;-87
2023/08/19 13:49:10;;;;;;;16.10;8.60;;;;;;;32.08;45.77;99098.52;137052;1275;22554;-85
2023/08/19 13:52:13;;;;;;;9.20;8.30;;;;;;;32.09;45.98;99097.52;136913;1274;22189;-87
2023/08/19 13:55:17;;;;;;;11.40;8.10;;;;;;;32.33;45.70;99097.14;137237;1274;22562;-86